Date,TemperatureHighF,TemperatureAvgF,TemperatureLowF,DewpointHighF,DewpointAvgF,DewpointLowF,HumidityHigh,HumidityAvg,HumidityLow,PressureMaxIn,PressureMinIn,WindSpeedMaxMPH,WindSpeedAvgMPH,GustSpeedMaxMPH,PrecipitationSumIn
2013-1-1,55,45,37,39,35,28,94,73,42,0.00,40.00,8,4,17,0.00
2013-1-2,63,49,35,34,29,15,77,50,15,0.00,40.00,8,3,17,0.00
2013-1-3,66,50,37,33,26,13,77,47,14,0.00,40.00,8,2,15,0.00
2013-1-4,64,48,36,36,26,19,68,46,18,0.00,40.00,7,2,11,0.00
2013-1-5,66,49,35,43,30,19,87,55,16,0.00,40.00,6,0,9,0.00
2013-1-6,52,46,41,47,43,38,98,88,70,0.00,40.00,7,3,15,0.03
2013-1-7,62,48,38,43,39,32,100,75,32,0.00,40.00,10,2,19,0.01
2013-1-8,73,53,40,47,36,31,75,57,23,0.00,40.00,8,2,11,0.00
2013-1-9,70,53,44,49,43,38,100,71,36,0.00,40.00,9,3,15,0.00
2013-1-10,50,47,40,49,43,29,100,86,67,0.00,40.00,13,6,25,0.03
2013-1-11,51,39,30,33,30,27,91,73,43,0.00,40.00,8,1,16,0.00
2013-1-12,50,38,29,33,29,21,94,75,32,0.00,40.00,7,2,11,0.00
2013-1-28,44,43,43,40,40,39,88,86,82,30.19,30.19,2,1,7,0.63
2013-1-29,57,46,36,46,40,35,95,81,57,30.26,30.18,9,3,16,0.01
2013-1-30,68,52,39,48,42,38,97,74,37,30.36,30.26,7,2,12,0.01
2013-1-31,74,60,44,45,41,40,86,53,29,30.28,30.16,9,5,17,0.04
2013-2-1,76,59,46,48,42,37,82,57,24,30.25,30.16,9,1,13,0.02
2013-2-2,73,62,51,48,44,40,77,54,30,30.26,30.17,6,1,10,0.00
2013-2-3,70,61,52,50,49,46,85,66,45,30.20,30.07,7,3,14,0.00
2013-2-4,75,57,45,52,48,43,95,74,36,30.14,30.02,9,2,15,0.15
2013-2-5,59,50,43,51,48,42,97,92,75,30.13,30.02,7,3,13,0.02
2013-2-6,64,53,47,49,47,45,96,82,54,30.15,30.04,8,2,15,0.00
2013-2-7,63,50,41,53,46,41,99,89,59,30.17,30.04,10,4,20,0.19
2013-2-8,49,44,40,46,42,39,96,91,82,30.05,29.93,12,6,26,0.10
2013-2-9,52,43,34,42,39,34,98,85,61,30.14,29.95,8,3,15,0.00
2013-2-10,51,43,35,44,40,34,98,88,66,30.14,30.05,9,3,13,1.86
2013-2-11,57,47,36,44,33,18,98,68,22,30.26,30.08,13,4,22,0.00
2013-2-12,61,46,33,43,32,26,86,64,27,30.38,30.26,9,2,13,0.00
2013-2-13,68,50,36,45,36,30,88,64,24,30.30,30.17,5,1,13,0.00
2013-2-14,74,57,41,44,38,34,84,56,23,30.25,30.11,10,3,17,0.00
2013-2-15,76,60,47,39,32,23,66,39,15,30.27,30.19,16,4,25,0.00
2013-2-16,79,62,48,41,28,15,60,32,9,30.26,30.05,11,4,20,0.00
2013-2-17,66,54,42,49,40,31,95,63,32,30.07,29.97,13,4,18,0.00
2013-2-18,62,51,45,48,46,43,97,83,49,30.11,29.99,9,4,16,0.00
2013-2-19,49,46,43,46,44,41,97,91,80,30.02,29.73,10,6,17,0.53
2013-2-20,55,45,38,42,38,34,96,77,51,30.04,29.72,12,6,22,0.02
2013-2-21,56,46,35,44,39,34,96,79,48,30.12,30.01,8,2,14,0.00
2013-2-22,64,48,36,44,38,32,97,73,35,30.23,30.14,9,2,18,0.00
2013-2-23,62,50,40,45,39,34,95,70,37,30.21,29.96,11,4,19,0.00
2013-2-24,64,51,39,41,28,13,92,50,16,30.23,30.02,9,2,17,0.00
2013-2-25,68,51,36,38,27,21,74,43,19,30.27,30.11,13,2,17,0.00
2013-2-26,74,52,35,41,30,24,79,49,18,30.18,30.02,8,1,16,0.00
2013-2-27,70,57,42,36,25,21,55,31,16,30.33,30.18,9,4,20,0.00
2013-2-28,76,58,41,39,26,19,59,33,14,30.37,30.29,10,3,17,0.00
2013-3-1,81,65,46,32,29,26,54,29,13,30.38,30.23,16,5,23,0.00
2013-3-2,83,65,49,43,33,26,65,35,13,30.30,30.15,9,3,15,0.00
2013-3-3,71,60,50,49,38,33,94,48,25,30.18,30.03,12,5,18,0.00
2013-3-4,69,55,49,52,49,48,97,82,48,30.16,30.07,7,2,13,0.00
2013-3-5,65,53,47,53,49,46,98,88,62,30.15,30.06,12,5,21,0.00
2013-3-6,63,53,47,48,46,44,97,79,53,30.18,30.06,8,4,16,0.00
2013-3-7,54,50,47,52,48,45,98,92,79,30.06,29.91,9,2,19,0.12
2013-3-8,47,46,45,46,43,43,95,90,86,30.08,29.91,10,7,17,0.02
2013-3-9,57,49,46,47,45,44,98,87,67,30.25,30.07,8,2,14,0.00
2013-3-10,72,62,53,48,43,33,77,53,24,30.25,30.19,7,3,12,0.00
2013-3-11,75,61,47,47,43,38,82,54,29,30.25,30.11,9,3,15,0.00
2013-3-12,82,70,51,51,43,35,76,42,19,30.17,30.07,7,2,14,0.00
2013-3-13,88,68,52,50,44,35,73,47,15,30.19,30.10,9,3,15,0.00
2013-3-14,91,70,53,53,46,35,75,48,14,30.16,30.07,6,1,15,0.00
2013-3-15,82,67,54,52,48,44,78,53,27,30.12,30.00,10,3,17,0.00
2013-3-16,73,60,50,53,46,38,92,62,28,30.02,29.93,9,3,16,0.00
2013-3-17,71,57,48,58,51,47,99,84,48,30.04,29.98,9,3,15,0.00
2013-3-18,63,53,50,53,51,49,99,91,68,30.14,30.03,9,3,11,0.02
2013-3-19,71,58,49,55,52,48,98,82,56,30.16,30.09,9,3,13,0.00
2013-3-20,73,60,50,54,51,49,96,74,44,30.16,30.05,10,3,17,0.00
2013-3-21,70,58,50,52,50,49,96,77,49,30.04,29.86,9,3,19,0.00
2013-3-22,75,58,51,54,51,47,98,80,37,29.98,29.85,11,4,18,0.00
2013-3-23,75,58,46,53,48,40,98,76,28,30.07,29.95,9,3,20,0.00
2013-3-24,78,61,46,52,46,35,97,65,21,30.07,29.95,8,2,16,0.00
2013-3-25,80,63,50,51,46,33,83,59,18,30.03,29.95,12,3,16,0.00
2013-3-26,72,59,48,51,43,32,96,60,23,30.02,29.95,10,4,19,0.00
2013-3-27,70,57,49,51,49,48,98,80,51,30.10,29.98,14,4,19,0.00
2013-3-28,74,58,47,53,50,46,96,77,46,30.14,30.06,11,2,18,0.00
2013-3-29,76,61,49,56,52,46,98,75,34,30.18,30.09,11,4,19,0.00
2013-3-30,77,61,52,56,53,50,98,77,44,30.19,30.09,10,4,18,0.00
2013-3-31,70,57,48,54,51,47,96,81,53,30.18,30.09,12,5,22,0.00
2013-4-1,66,57,51,53,50,47,97,80,52,30.21,30.11,10,4,18,0.00
2013-4-2,73,60,51,54,52,50,96,78,48,30.14,30.03,9,3,15,0.00
2013-4-3,83,64,49,56,51,41,96,70,23,30.14,30.06,12,3,19,0.00
2013-4-4,78,63,48,56,51,45,98,72,33,30.14,30.07,12,3,19,0.00
2013-4-5,71,58,51,56,54,50,99,86,58,30.15,30.05,12,4,17,0.00
2013-4-6,70,60,55,55,53,52,95,80,54,30.12,30.02,11,5,19,0.00
2013-4-7,72,60,53,55,53,51,98,82,53,30.05,29.88,9,4,16,0.00
2013-4-8,57,54,50,54,49,43,98,84,60,29.88,29.74,17,10,28,0.01
2013-4-9,61,51,44,47,42,28,97,77,28,30.07,29.87,14,4,23,0.00
2013-4-10,80,62,43,43,33,16,74,41,9,30.14,30.04,13,5,24,0.00
2013-4-11,76,61,48,54,44,33,94,57,23,30.09,29.84,14,5,22,0.00
2013-4-12,80,62,53,55,53,51,95,76,37,29.94,29.82,11,4,20,0.00
2013-4-13,69,58,53,56,54,51,98,88,62,29.95,29.88,11,4,18,0.00
2013-4-14,60,54,51,53,50,49,98,89,71,29.93,29.87,9,4,16,0.01
2013-4-15,61,55,51,52,50,49,95,83,66,29.95,29.88,15,7,22,0.00
2013-4-16,60,52,45,49,44,42,92,75,53,30.03,29.91,10,6,21,0.02
2013-4-17,71,56,41,44,32,16,96,50,12,30.17,30.03,17,6,25,0.00
2013-4-18,75,61,44,31,24,16,53,28,11,30.26,30.16,14,4,19,0.00
2013-4-19,84,67,47,42,24,16,50,25,8,30.23,30.03,10,4,18,0.00
2013-4-20,90,69,50,47,36,30,57,33,12,30.08,29.94,12,3,20,0.00
2013-4-21,83,68,52,48,41,33,68,41,18,30.06,30.01,13,4,21,0.00
2013-4-22,78,61,49,52,46,38,96,65,24,30.07,29.94,14,4,20,0.00
2013-4-23,82,62,52,54,52,49,97,74,32,30.02,29.89,10,3,19,0.00
2013-4-24,61,56,53,54,52,48,96,86,75,30.03,29.95,12,4,20,0.00
2013-4-25,72,60,54,51,50,49,90,71,45,30.17,30.01,10,4,16,0.00
2013-4-26,82,64,50,54,51,47,93,66,34,30.22,30.15,9,3,17,0.00
2013-4-27,85,68,54,57,52,46,86,62,26,30.21,30.07,9,3,18,0.00
2013-4-28,85,68,53,57,54,50,96,65,32,30.09,29.93,11,3,16,0.00
2013-4-29,81,64,52,66,53,45,99,73,29,29.95,29.84,10,3,18,0.00
2013-4-30,70,61,54,55,54,52,97,80,55,29.95,29.87,9,4,19,0.00
2013-5-1,86,65,57,57,55,52,96,75,33,30.15,29.95,10,3,15,0.00
2013-5-2,90,73,53,54,27,5,96,37,4,30.19,30.08,11,5,27,0.00
2013-5-3,92,74,56,44,23,13,44,18,6,30.12,29.87,12,4,20,0.00
2013-5-4,78,64,55,55,48,37,90,61,24,29.91,29.81,12,6,26,0.00
2013-5-5,63,57,55,54,52,50,93,81,64,30.01,29.90,13,6,20,0.00
2013-5-6,61,58,55,57,54,51,97,87,69,30.08,30.01,9,6,19,0.07
2013-5-7,64,58,54,54,53,50,97,84,64,30.14,30.04,12,5,19,0.10
2013-5-8,69,60,54,54,53,51,96,79,56,30.15,30.10,10,3,20,0.00
2013-5-9,72,61,52,57,54,51,96,79,55,30.15,30.07,12,4,20,0.07
2013-5-10,82,66,54,60,57,53,98,76,41,30.15,30.07,11,4,19,0.00
2013-5-11,94,75,58,58,53,38,93,56,14,30.15,30.05,11,4,21,0.00
2013-5-12,99,82,63,56,45,29,66,34,9,30.14,29.98,10,5,22,0.00
2013-5-13,100,85,67,59,43,32,53,28,10,30.07,29.94,12,4,27,0.00
2013-5-14,86,74,59,59,50,39,93,49,19,30.07,29.97,13,6,22,0.00
2013-5-15,78,64,56,56,54,51,96,74,41,30.09,30.02,10,5,19,0.00
2013-5-16,76,58,55,57,36,-100,96,79,47,30.04,29.94,12,6,21,0.00
2013-5-17,73,62,57,57,49,-100,92,79,56,30.08,29.97,14,5,20,0.00
2013-5-18,76,64,58,57,55,54,89,75,51,30.09,30.03,10,5,18,0.00
2013-5-19,80,66,55,59,56,52,97,74,42,30.06,29.95,9,4,18,0.00
2013-5-20,90,70,56,59,55,45,92,65,21,30.01,29.94,12,4,21,0.00
2013-5-21,84,70,54,59,56,51,96,67,35,30.01,29.89,13,5,21,0.00
2013-5-22,74,63,58,58,56,52,96,78,51,29.93,29.83,11,6,21,0.00
2013-5-23,71,62,56,54,52,50,90,73,49,30.00,29.88,11,5,19,0.00
2013-5-24,72,63,55,53,51,48,89,69,47,30.05,29.97,11,5,20,0.00
2013-5-25,75,61,52,54,51,45,96,73,34,30.07,30.02,10,5,19,0.00
2013-5-26,73,61,54,54,52,50,97,77,47,30.12,30.05,12,5,21,0.00
2013-5-27,78,63,52,57,54,51,96,76,44,30.07,29.94,15,4,20,0.00
2013-5-28,74,63,57,59,56,54,95,80,56,29.95,29.83,11,4,17,0.00
2013-5-29,84,67,54,61,57,53,96,74,40,29.87,29.81,12,4,20,0.00
2013-5-30,83,68,57,59,57,55,95,70,40,29.94,29.84,11,4,18,0.00
2013-5-31,85,76,65,60,57,54,80,55,36,29.95,29.88,9,5,17,0.00
2013-6-1,97,73,60,62,59,55,87,65,25,29.94,29.82,11,4,18,0.00
2013-6-2,78,67,59,61,59,57,95,77,54,29.90,29.83,12,4,17,0.00
2013-6-3,77,65,58,59,58,55,96,79,52,29.95,29.87,12,4,18,0.00
2013-6-4,78,66,59,58,57,55,92,76,47,30.04,29.94,11,4,18,0.00
2013-6-5,84,67,57,59,57,53,96,75,36,30.06,29.94,9,3,17,0.00
2013-6-6,82,67,55,61,57,54,98,76,43,30.00,29.93,12,3,17,0.00
2013-6-7,82,66,57,61,58,56,97,78,45,29.97,29.85,8,3,15,0.00
2013-6-8,80,66,57,61,58,56,97,78,50,29.96,29.85,13,4,19,0.00
2013-6-9,82,66,57,60,56,52,97,75,36,29.97,29.92,11,3,18,0.00
2013-6-10,81,65,55,57,54,48,98,72,37,30.01,29.95,11,4,21,0.00
2013-6-11,92,71,57,61,52,38,81,58,17,30.00,29.95,10,4,18,0.00
2013-6-12,77,65,57,61,59,56,98,82,55,30.07,29.98,11,4,21,0.00
2013-6-13,86,69,59,60,58,55,95,71,36,30.06,29.95,9,3,15,0.00
2013-6-14,80,66,53,58,55,47,98,73,32,29.99,29.91,10,4,17,0.00
2013-6-15,79,64,55,58,54,48,98,76,39,30.05,29.95,11,3,18,0.00
2013-6-16,84,68,52,58,54,47,97,67,31,30.08,30.01,10,3,17,0.00
2013-6-17,86,70,57,56,54,50,84,59,32,30.04,29.95,13,3,18,0.00
2013-6-18,82,70,58,58,54,52,87,61,35,29.97,29.91,12,4,20,0.00
2013-6-19,82,69,57,59,56,51,98,69,37,29.93,29.87,12,4,18,0.00
2013-6-20,64,60,57,57,56,54,89,86,78,29.91,29.87,0,0,0,0.00
2013-6-22,83,74,61,57,54,50,84,53,35,29.96,29.88,10,5,18,0.00
2013-6-23,78,66,57,58,56,54,97,75,44,29.94,29.86,12,6,19,0.00
2013-6-24,76,68,60,59,58,55,88,72,55,30.00,29.95,10,5,17,0.00
2013-6-25,84,71,58,62,60,57,97,71,46,30.06,29.96,9,3,16,0.00
2013-6-26,91,77,64,63,61,59,87,62,35,30.05,29.97,10,3,19,0.00
2013-6-27,96,81,68,62,59,56,75,51,28,30.11,30.05,11,3,20,0.00
2013-6-28,100,83,69,61,58,52,68,46,21,30.09,29.95,10,2,18,0.00
2013-6-29,102,87,72,62,58,53,66,40,21,29.99,29.83,13,3,15,0.00
2013-6-30,97,84,75,66,58,54,57,42,24,29.91,29.83,10,2,19,0.00
2013-7-1,98,83,73,61,57,46,65,44,17,29.98,29.90,10,3,19,0.00
2013-7-2,93,79,69,64,59,54,64,51,27,30.05,29.97,11,3,18,0.00
2013-7-3,94,80,68,64,59,50,82,51,27,30.01,29.88,8,3,20,0.00
2013-7-4,94,78,67,60,54,42,74,49,17,29.91,29.83,12,3,20,0.00
2013-7-5,87,73,62,62,59,53,91,66,31,29.91,29.84,11,4,18,0.00
2013-7-6,87,70,62,63,62,60,95,78,45,29.90,29.82,12,3,15,0.00
2013-7-7,93,76,62,64,62,59,94,68,33,29.94,29.84,10,2,16,0.00
2013-7-8,100,80,65,64,60,47,84,57,17,30.03,29.92,8,2,16,0.00
2013-7-9,93,82,74,63,57,48,63,43,24,30.07,29.99,10,4,17,0.00
2013-7-10,82,75,72,62,56,-100,68,54,43,30.06,29.99,10,3,17,0.00
2013-7-11,84,73,68,66,63,57,85,72,50,30.06,29.96,7,2,14,0.02
2013-7-12,87,75,67,66,64,60,89,70,41,30.01,29.92,11,3,19,0.00
2013-7-13,90,76,62,64,62,58,96,66,37,30.02,29.94,9,3,18,0.00
2013-7-14,93,79,69,63,58,49,79,53,25,30.01,29.92,12,4,19,0.00
2013-7-15,93,77,66,62,58,53,73,55,29,29.95,29.88,9,2,17,0.00
2013-7-16,91,74,63,62,53,39,84,53,16,30.07,29.93,13,3,23,0.00
2013-7-17,93,73,61,56,47,31,67,46,11,30.09,30.03,11,1,21,0.00
2013-7-18,93,76,62,61,51,36,65,45,15,30.06,29.94,8,2,16,0.00
2013-7-19,88,73,65,61,59,56,84,64,36,29.98,29.90,11,3,16,0.00
2013-7-20,83,67,61,64,58,-100,96,77,53,29.95,29.87,8,3,13,0.00
2013-7-21,81,71,66,66,64,62,91,79,56,30.00,29.86,9,3,15,0.00
2013-7-22,86,74,65,67,65,61,96,75,49,30.06,29.98,14,4,22,0.00
2013-7-23,87,74,66,65,62,61,83,69,46,30.09,29.99,9,3,16,0.00
2013-7-24,90,77,64,64,62,60,88,63,41,30.06,29.95,10,3,16,0.00
2013-7-25,90,75,65,64,62,59,89,67,36,30.09,30.00,8,3,15,0.00
2013-7-26,81,71,65,66,63,61,86,75,58,30.15,30.07,8,2,12,0.00
2013-7-27,88,76,65,64,62,60,89,64,42,30.09,29.95,14,4,21,0.00
2013-7-28,84,70,60,63,58,47,97,71,29,29.98,29.93,12,4,20,0.00
2013-7-29,86,66,55,60,56,54,96,75,35,30.11,29.97,10,3,16,0.00
2013-7-30,86,68,58,59,57,55,95,73,35,30.16,30.09,10,4,17,0.00
2013-7-31,79,66,57,61,58,56,97,79,49,30.16,30.06,12,4,17,0.00
2013-8-1,83,69,58,59,56,51,96,67,34,30.08,29.97,11,4,19,0.00
2013-8-2,84,68,58,61,57,53,97,75,34,30.04,29.97,9,3,17,0.00
2013-8-3,84,69,54,60,56,52,97,69,34,30.05,29.99,9,2,16,0.00
2013-8-4,87,72,59,61,56,51,90,63,32,30.06,29.99,10,2,16,0.00
2013-8-5,90,71,59,59,55,50,83,60,26,30.06,29.99,9,3,18,0.00
2013-8-6,87,69,55,59,54,45,97,65,24,30.09,30.02,13,3,19,0.00
2013-8-7,85,68,56,58,55,45,90,67,25,30.13,30.03,9,2,15,0.00
2013-8-8,88,72,59,59,52,42,76,55,24,30.07,29.96,12,3,20,0.00
2013-8-9,82,67,53,61,55,50,98,70,33,30.03,29.96,12,4,19,0.00
2013-8-10,82,67,54,58,55,52,96,69,36,30.08,30.01,9,3,17,0.00
2013-8-11,86,71,57,59,55,52,89,63,32,30.06,29.96,10,3,17,0.00
2013-8-12,88,70,55,59,56,54,96,66,33,30.02,29.96,9,2,16,0.00
2013-8-13,93,70,59,62,52,-100,91,64,25,30.03,29.93,8,2,16,0.00
2013-8-14,94,74,60,61,59,55,92,65,29,29.99,29.90,9,3,16,0.00
2013-8-15,95,68,65,63,33,-100,83,44,17,30.02,29.95,12,4,21,0.00
2013-8-16,94,73,68,60,43,-100,68,44,25,30.04,29.97,12,4,18,0.00
2013-8-17,97,82,69,61,57,52,60,45,23,30.03,29.89,12,4,18,0.00
2013-8-18,90,79,68,62,57,52,68,50,32,29.97,29.89,12,3,20,0.00
2013-8-19,93,74,67,63,54,-100,81,60,30,30.00,29.92,8,4,17,0.00
2013-8-20,92,77,66,61,51,-100,79,49,21,29.98,29.91,12,3,18,0.00
2013-8-21,100,80,66,59,56,47,69,48,17,30.00,29.90,11,3,19,0.00
2013-8-22,100,86,69,57,51,43,60,33,16,30.00,29.88,11,4,17,0.00
2013-8-23,98,82,68,55,50,47,55,35,18,29.95,29.81,11,3,19,0.00
2013-8-24,93,82,65,52,46,38,60,33,15,29.94,29.84,10,4,19,0.00
2013-8-25,92,79,67,62,54,47,60,42,28,30.01,29.93,13,3,22,0.00
2013-8-26,89,82,75,66,61,49,61,51,37,30.01,29.90,9,2,17,0.00
2013-8-27,91,81,72,65,64,61,72,58,41,29.94,29.90,4,1,14,0.00
2013-8-28,96,90,80,62,60,56,50,37,30,29.99,29.89,9,5,22,0.00
2013-8-29,96,85,75,72,63,59,71,48,34,30.06,29.97,10,3,21,0.00
2013-8-30,92,86,79,70,69,66,74,58,43,30.09,30.01,10,6,21,0.00
2013-8-31,93,81,76,71,70,68,82,69,47,30.07,29.96,12,3,19,0.00
2013-9-1,94,80,73,70,68,66,83,68,41,30.03,29.92,11,2,20,0.00
2013-9-2,94,83,70,69,66,61,85,60,35,30.00,29.89,9,4,20,0.00
2013-9-3,97,86,76,67,63,59,70,48,30,29.99,29.91,10,4,20,0.00
2013-9-4,99,88,74,64,61,57,67,43,26,30.00,29.92,15,4,33,0.00
2013-9-5,101,89,76,63,60,56,61,40,23,29.99,29.92,11,2,30,0.00
2013-9-6,101,87,77,63,58,53,59,40,21,29.97,29.88,11,3,23,0.00
2013-9-7,98,86,76,63,59,55,55,42,26,29.97,29.89,12,3,21,0.00
2013-9-8,95,82,71,62,56,51,70,45,23,29.95,29.83,8,3,18,0.00
2013-9-9,88,80,70,57,56,54,62,45,34,29.89,29.82,11,3,18,0.00
2013-9-10,85,72,61,62,58,52,97,66,33,30.00,29.88,10,4,19,0.00
2013-9-11,85,70,57,61,58,52,97,72,32,30.05,29.97,10,2,17,0.00
2013-9-12,95,75,60,59,52,37,85,53,14,30.00,29.90,10,3,19,0.00
2013-9-13,93,79,64,59,50,39,61,40,16,29.93,29.76,9,3,17,0.00
2013-9-14,100,80,67,62,55,41,63,47,14,29.81,29.70,8,2,16,0.00
2013-9-15,100,82,68,62,57,44,72,48,17,29.87,29.78,11,3,18,0.00
2013-9-16,99,82,67,63,53,40,73,41,15,29.91,29.82,10,4,16,0.00
2013-9-17,85,72,60,61,57,52,95,63,34,29.89,29.79,10,3,18,0.00
2013-9-18,66,60,58,59,58,57,98,93,74,29.87,29.82,0,0,10,0.00
2013-9-19,83,68,57,62,59,54,93,77,46,29.90,29.83,8,2,15,0.00
2013-9-20,76,64,61,63,60,59,97,89,61,29.96,29.89,7,2,15,0.00
2013-9-21,79,67,61,60,59,56,95,76,48,29.96,29.86,9,4,17,0.00
2013-9-22,77,64,57,59,57,54,96,79,46,29.92,29.84,12,3,15,0.00
2013-9-23,93,73,56,56,50,35,87,53,13,29.99,29.89,11,4,20,0.00
2013-9-24,89,76,61,56,50,42,68,44,21,30.01,29.93,11,4,20,0.00
2013-9-25,76,65,58,57,54,50,88,70,46,29.95,29.79,12,5,19,0.00
2013-9-26,68,62,58,55,53,48,83,72,57,29.96,29.80,11,6,18,0.00
2013-9-27,82,66,51,48,39,26,87,47,13,30.08,29.95,10,3,15,0.00
2013-9-28,89,69,55,41,33,20,48,30,8,30.11,30.02,10,2,16,0.00
2013-9-29,89,72,55,43,37,28,48,31,11,30.14,30.03,9,2,18,0.00
2013-9-30,87,70,55,49,42,35,54,39,16,30.09,29.95,10,2,17,0.00
2013-10-1,76,66,59,59,58,53,96,78,45,30.00,29.95,7,2,15,0.00
2013-10-2,78,64,56,58,57,55,98,80,46,30.02,29.94,8,3,17,0.00
2013-10-3,75,64,60,60,57,55,94,79,52,30.00,29.88,11,3,19,0.00
2013-10-4,86,71,56,58,39,16,96,47,9,30.14,29.95,8,2,21,0.00
2013-10-5,87,72,57,31,24,15,35,18,7,30.21,30.13,15,4,23,0.00
2013-10-6,91,72,52,30,23,18,39,19,7,30.18,30.04,7,1,13,0.00
2013-10-7,86,74,58,49,34,23,63,27,10,30.06,29.97,10,3,18,0.00
2013-10-8,72,64,52,56,50,36,87,62,40,30.01,29.89,11,5,19,0.00
2013-10-9,58,55,51,54,52,49,97,90,72,29.89,29.78,14,6,22,0.31
2013-10-10,64,55,47,51,49,46,96,83,57,30.06,29.85,5,1,12,0.01
2013-10-11,78,61,48,55,50,47,95,72,33,30.09,29.99,7,2,13,0.00
2013-10-12,78,63,53,58,53,48,96,72,36,30.03,29.95,11,3,17,0.00
2013-10-13,69,60,54,56,54,51,96,83,52,30.07,29.99,8,4,18,0.00
2013-10-14,82,67,50,54,42,32,96,52,17,30.08,29.97,9,4,16,0.00
2013-10-15,83,69,54,41,38,25,58,35,12,30.06,29.95,9,3,14,0.00
2013-10-16,82,69,53,39,34,26,57,31,13,30.16,30.04,7,2,13,0.00
2013-10-17,82,65,52,43,37,31,53,37,16,30.11,29.99,9,1,18,0.00
2013-10-18,88,66,52,45,38,27,63,41,11,30.08,29.99,7,1,13,0.00
2013-10-19,89,70,53,45,36,20,63,35,8,30.10,30.02,5,1,13,0.00
2013-10-20,83,68,52,55,46,37,74,49,21,30.06,29.96,9,2,14,0.00
2013-10-21,85,65,51,55,48,37,84,59,18,30.04,29.97,8,1,12,0.00
2013-10-22,87,66,52,58,45,34,89,55,17,30.04,29.98,8,3,12,0.00
2013-10-23,71,59,52,62,55,51,98,88,60,30.03,29.96,8,2,14,0.00
2013-10-24,71,60,55,57,55,53,95,86,57,30.11,30.01,6,1,13,0.00
2013-10-25,80,62,50,57,53,49,98,78,43,30.17,30.07,8,1,11,0.00
2013-10-26,89,71,56,53,46,32,77,47,13,30.15,30.03,6,2,14,0.00
2013-10-27,79,67,57,56,48,41,94,55,31,30.06,29.88,13,6,20,0.00
2013-10-28,60,54,53,54,43,-100,96,83,68,29.99,29.91,14,6,21,0.04
2013-10-29,62,54,47,52,50,46,97,86,62,30.06,29.97,9,2,17,0.01
2013-10-30,71,56,46,54,48,41,97,80,35,30.11,30.03,9,1,15,0.00
2013-10-31,79,62,47,50,39,26,93,54,14,30.16,30.04,8,3,15,0.00
2013-11-1,84,67,49,38,34,31,59,33,15,30.18,30.02,13,4,22,0.00
2013-11-2,79,63,52,56,40,32,96,49,18,30.08,29.95,11,3,19,0.00
2013-11-3,69,58,49,55,53,48,99,84,54,29.99,29.88,9,3,13,0.01
2013-11-4,63,57,54,53,51,49,92,80,64,29.99,29.85,7,4,12,0.00
2013-11-5,72,58,47,51,37,22,96,54,16,30.22,29.99,12,3,18,0.00
2013-11-6,80,66,46,27,18,12,47,20,8,30.27,30.19,10,3,16,0.00
2013-11-7,84,72,54,26,22,16,33,17,8,30.20,30.07,8,2,14,0.00
2013-11-8,71,57,50,36,30,26,49,37,23,30.11,30.06,0,0,6,0.00
2013-11-9,79,61,49,37,31,22,53,37,12,30.14,30.06,6,1,14,0.00
2013-11-10,80,65,49,36,29,24,52,29,13,30.21,30.09,6,1,9,0.00
2013-11-11,83,65,47,50,39,28,64,41,17,30.19,30.09,8,1,12,0.00
2013-11-12,81,66,53,48,42,38,67,45,22,30.24,30.15,5,0,11,0.00
2013-11-13,89,71,56,44,38,32,55,34,13,30.17,29.99,8,4,13,0.00
2013-11-14,88,74,57,43,36,30,50,28,14,30.04,29.90,8,2,16,0.00
2013-11-15,62,58,54,55,54,46,96,85,57,29.83,29.75,9,5,22,0.00
2013-11-16,59,55,53,54,53,50,98,94,72,29.93,29.82,7,5,15,0.10
2013-11-18,66,59,48,55,52,47,97,80,58,30.20,30.09,6,2,12,0.00
2013-11-19,63,58,55,55,53,52,94,84,68,30.14,30.01,7,2,12,0.00
2013-11-20,61,58,54,55,54,53,96,87,74,30.03,29.96,8,3,14,0.00
2013-11-21,58,56,54,57,55,51,98,97,94,29.95,29.91,10,3,18,0.26
2013-11-22,52,49,46,51,47,43,98,93,87,30.01,29.88,9,3,15,0.21
2013-11-23,61,51,43,47,44,42,96,79,56,30.13,30.00,10,4,17,0.00
2013-11-24,63,53,42,49,44,41,96,75,50,30.24,30.13,5,1,10,0.00
2013-11-25,70,55,43,50,44,41,94,71,35,30.29,30.21,8,2,12,0.00
2013-11-26,74,62,45,45,41,38,89,49,27,30.26,30.12,14,7,25,0.00
2013-11-27,73,61,56,43,40,38,57,45,29,30.13,29.95,14,4,25,0.00
2013-11-28,67,59,48,50,45,38,84,62,38,30.11,29.97,8,2,17,0.00
2013-11-29,60,55,50,54,49,45,94,81,69,30.24,30.11,6,2,10,0.20
2013-11-30,72,56,48,52,49,46,95,80,39,30.24,30.13,6,2,13,0.00
2013-12-1,76,60,48,47,41,32,85,56,20,30.30,30.18,7,3,14,0.00
2013-12-2,75,60,46,42,37,34,69,47,22,30.23,29.99,6,1,10,0.00
2013-12-3,60,56,46,54,51,38,96,83,71,29.93,29.81,11,7,22,0.00
2013-12-4,56,51,43,53,44,37,96,77,56,30.01,29.82,9,3,22,0.01
2013-12-5,55,46,40,45,40,37,95,82,51,30.14,29.99,8,3,16,0.00
2013-12-6,53,45,37,42,39,35,96,82,62,30.22,30.12,10,3,14,0.00
2013-12-7,50,43,38,46,40,37,97,91,72,30.15,30.07,10,2,18,0.02
2013-12-8,52,45,40,43,41,36,95,86,66,30.24,30.12,8,3,17,0.00
2013-12-9,56,39,34,36,32,15,94,80,26,30.34,30.21,9,4,13,0.00
2013-12-10,65,51,39,24,17,16,38,28,16,30.27,30.13,8,6,14,0.00
2013-12-11,71,57,42,28,24,21,46,30,15,30.23,30.15,9,2,15,0.00
2013-12-12,68,56,44,44,34,22,76,51,17,30.26,30.17,6,1,10,0.00
2013-12-13,67,55,40,38,35,32,85,52,28,30.25,30.17,6,1,7,0.00
2013-12-14,73,58,42,34,29,20,69,39,14,30.36,30.24,9,3,16,0.00
2013-12-15,80,69,49,30,27,23,40,22,12,30.29,30.17,6,2,13,0.00
2013-12-16,82,71,57,33,31,29,36,24,15,30.23,30.13,7,2,12,0.00
2013-12-17,83,72,58,40,34,29,47,27,14,30.20,30.09,8,3,13,0.00
2013-12-18,70,61,53,52,44,39,94,56,32,30.06,29.92,10,3,19,0.00
2013-12-19,53,49,45,49,48,43,98,94,84,29.92,29.76,12,6,18,0.34
2013-12-20,60,47,37,48,43,37,99,88,52,30.00,29.80,6,2,12,0.01
2013-12-21,57,47,40,49,44,39,99,92,69,30.12,29.97,7,1,11,0.01
2013-12-22,67,53,39,49,43,38,98,74,39,30.32,30.12,6,1,11,0.00
2013-12-23,73,58,46,43,40,38,80,55,28,30.37,30.28,7,2,13,0.00
2013-12-24,79,67,55,42,38,35,59,38,21,30.27,30.16,5,2,10,0.00
2013-12-25,77,64,52,39,30,23,61,32,14,30.26,30.18,7,2,12,0.00
2013-12-26,76,66,54,24,20,16,31,19,11,30.25,30.14,13,4,25,0.00
2013-12-27,79,73,52,26,22,20,29,15,11,30.23,30.11,8,4,14,0.00
2013-12-28,72,66,52,33,27,21,43,25,15,30.12,30.00,8,4,15,0.00
2013-12-29,71,62,43,32,24,16,62,29,12,30.15,30.06,10,5,19,0.00
2013-12-30,72,70,66,20,16,12,17,13,10,30.27,30.22,0,0,9,0.00
2013-12-31,74,69,62,38,27,21,41,22,15,30.20,30.14,1,0,9,0.00
2014-1-1,79,60,43,31,29,26,61,36,15,30.18,30.10,4,1,9,0.00